Time;durP1;ratioP1;P1;durP2;ratioP2;P2;SDS_P1;SDS_P2;PMS_P1;PMS_P2;Temp;Humidity;BMP_temperature;BMP_pressure;BME280_temperature;BME280_humidity;BME280_pressure;Samples;Min_cycle;Max_cycle;Signal;HPM_P1;HPM_P2
2022/01/27 00:01:37;;;;;;;44.15;19.98;;;;;;;0.22;77.13;100274.44;2618050;47;20031;-65
2022/01/27 00:04:13;;;;;;;38.55;20.73;;;;;;;0.31;77.49;100267.03;2618503;54;20042;-66
2022/01/27 00:06:46;;;;;;;39.83;19.52;;;;;;;0.38;76.91;100270.94;2618518;54;20597;-66
2022/01/27 00:09:22;;;;;;;39.65;21.02;;;;;;;0.41;77.28;100273.38;2618075;54;20572;-66
2022/01/27 00:11:52;;;;;;;41.58;22.05;;;;;;;0.39;77.11;100270.84;2619086;54;20045;-65
2022/01/27 00:14:22;;;;;;;41.22;20.50;;;;;;;0.38;77.15;100266.56;2617997;47;20381;-66
2022/01/27 00:16:58;;;;;;;42.95;21.30;;;;;;;0.28;77.25;100273.22;2618519;54;20045;-64
2022/01/27 00:19:28;;;;;;;41.85;20.95;;;;;;;0.32;76.79;100277.31;2617811;47;20074;-63
2022/01/27 00:22:00;;;;;;;41.17;22.05;;;;;;;0.28;77.14;100275.00;2618568;54;20039;-67
2022/01/27 00:24:31;;;;;;;40.03;20.38;;;;;;;0.21;76.96;100277.97;2618691;54;20576;-66
2022/01/27 00:27:03;;;;;;;41.00;21.38;;;;;;;0.15;77.14;100267.09;2617672;47;20052;-62
2022/01/27 00:29:33;;;;;;;41.60;20.98;;;;;;;0.09;77.13;100267.47;2618706;54;20038;-64
2022/01/27 00:32:03;;;;;;;38.10;19.88;;;;;;;0.01;77.46;100264.47;2617935;47;20073;-64
2022/01/27 00:34:32;;;;;;;39.40;21.00;;;;;;;-0.02;77.96;100258.53;2618460;54;20090;-65
2022/01/27 00:37:05;;;;;;;43.22;20.40;;;;;;;0.06;77.37;100260.69;2618111;54;20081;-64
2022/01/27 00:39:34;;;;;;;44.20;21.98;;;;;;;0.06;77.63;100262.44;2618513;54;20054;-65
2022/01/27 00:42:04;;;;;;;42.33;20.52;;;;;;;0.01;77.34;100264.47;2618407;54;20030;-65
2022/01/27 00:44:33;;;;;;;42.40;20.52;;;;;;;-0.03;77.83;100256.84;2619159;31;20451;-64
2022/01/27 00:47:03;;;;;;;39.65;19.20;;;;;;;0.00;77.83;100263.66;2618988;54;20038;-66
2022/01/27 00:49:35;;;;;;;46.33;20.08;;;;;;;-0.02;77.62;100263.72;2622183;54;20034;-64
2022/01/27 00:52:15;;;;;;;37.80;19.63;;;;;;;-0.02;77.62;100258.53;2622562;54;20082;-64
2022/01/27 00:54:45;;;;;;;41.25;21.55;;;;;;;-0.09;77.74;100259.78;2622530;54;20030;-64
2022/01/27 00:57:24;;;;;;;42.17;22.02;;;;;;;-0.13;78.31;100252.28;2621498;54;20068;-66
2022/01/27 00:59:58;;;;;;;43.28;21.83;;;;;;;-0.06;78.43;100259.63;2621876;54;20035;-65
2022/01/27 01:02:38;;;;;;;44.38;21.95;;;;;;;-0.05;78.16;100243.09;2621084;47;20035;-64
2022/01/27 01:05:22;;;;;;;44.97;20.60;;;;;;;-0.05;78.21;100256.09;2621804;54;20042;-65
2022/01/27 01:07:58;;;;;;;43.40;20.70;;;;;;;-0.12;77.96;100247.00;2623848;39;20454;-64
2022/01/27 01:16:13;;;;;;;44.17;23.40;;;;;;;0.09;78.06;100250.09;2622121;39;20485;-66
2022/01/27 01:18:51;;;;;;;43.05;22.55;;;;;;;0.13;78.06;100248.16;2621767;54;20107;-64
2022/01/27 01:21:38;;;;;;;44.30;20.30;;;;;;;0.04;77.97;100252.16;2621093;54;20022;-64
2022/01/27 01:30:20;;;;;;;41.45;19.20;;;;;;;-0.11;77.67;100256.47;2618007;54;20014;-66
2022/01/27 01:32:53;;;;;;;41.75;20.88;;;;;;;-0.16;77.96;100247.28;2619033;39;20462;-66
2022/01/27 01:35:28;;;;;;;41.33;20.65;;;;;;;-0.12;77.89;100249.59;2618254;39;20429;-63
2022/01/27 01:37:59;;;;;;;47.28;22.42;;;;;;;-0.10;77.83;100246.91;2618825;39;20418;-64
2022/01/27 01:40:31;;;;;;;44.92;21.98;;;;;;;-0.10;77.83;100247.72;2618510;54;20045;-64
2022/01/27 01:43:01;;;;;;;41.92;21.60;;;;;;;-0.08;77.91;100245.91;2618311;39;20422;-65
2022/01/27 01:45:36;;;;;;;50.30;22.63;;;;;;;-0.06;78.24;100238.00;2618585;54;20042;-65
2022/01/27 01:48:06;;;;;;;49.30;21.42;;;;;;;-0.12;78.04;100235.78;2617457;54;20071;-65
2022/01/27 01:50:36;;;;;;;43.28;20.17;;;;;;;-0.11;78.21;100251.25;2619001;54;20082;-65
2022/01/27 01:53:07;;;;;;;44.08;19.77;;;;;;;-0.18;78.23;100244.75;2618310;54;20045;-65
2022/01/27 01:55:39;;;;;;;43.08;21.30;;;;;;;-0.20;78.48;100248.38;2618585;54;20038;-65
2022/01/27 01:58:09;;;;;;;44.25;21.80;;;;;;;-0.23;78.56;100251.97;2618067;39;20443;-65
2022/01/27 02:00:39;;;;;;;49.13;22.48;;;;;;;-0.21;78.55;100242.31;2618384;54;20030;-65
2022/01/27 02:03:08;;;;;;;49.63;22.17;;;;;;;-0.18;78.40;100249.94;2618440;54;20550;-65
2022/01/27 02:05:48;;;;;;;44.03;21.35;;;;;;;-0.12;78.40;100239.19;2619064;54;20534;-64
2022/01/27 02:08:38;;;;;;;41.90;20.95;;;;;;;-0.08;78.66;100245.06;2618515;54;20065;-65
2022/01/27 02:19:23;;;;;;;45.35;21.52;;;;;;;0.02;77.83;100256.59;2619072;54;20038;-65
2022/01/27 02:21:57;;;;;;;42.85;20.30;;;;;;;0.06;78.22;100252.03;2621855;54;20038;-65
2022/01/27 02:24:28;;;;;;;47.17;21.35;;;;;;;0.05;77.64;100252.97;2621675;54;20031;-64
2022/01/27 02:26:59;;;;;;;45.25;21.13;;;;;;;-0.02;77.69;100263.72;2621624;54;20026;-66
2022/01/27 02:29:30;;;;;;;40.83;20.88;;;;;;;-0.08;77.62;100261.50;2622296;54;20074;-65
2022/01/27 02:32:01;;;;;;;43.97;20.92;;;;;;;-0.03;78.18;100254.25;2622975;39;20485;-65
2022/01/27 02:34:31;;;;;;;40.58;20.35;;;;;;;0.02;77.99;100247.94;2622105;54;20030;-65
2022/01/27 02:37:03;;;;;;;40.10;21.00;;;;;;;-0.02;77.96;100242.09;2621358;31;20541;-64
2022/01/27 02:39:33;;;;;;;43.22;19.42;;;;;;;0.04;77.85;100236.53;2618619;54;20023;-64
2022/01/27 02:42:08;;;;;;;41.75;20.95;;;;;;;0.05;77.78;100242.56;2618933;54;20089;-65
2022/01/27 02:44:53;;;;;;;42.15;20.42;;;;;;;0.07;78.11;100232.91;2622271;54;20038;-65
2022/01/27 02:47:25;;;;;;;40.95;20.85;;;;;;;0.05;77.65;100213.97;2622202;54;20030;-65
2022/01/27 02:49:55;;;;;;;41.65;19.83;;;;;;;-0.04;77.27;100208.41;2620679;39;20438;-64
2022/01/27 02:52:27;;;;;;;41.53;19.83;;;;;;;-0.07;78.29;100202.53;2621981;54;20045;-65
2022/01/27 02:54:57;;;;;;;41.47;20.05;;;;;;;-0.07;77.83;100194.72;2621772;54;20042;-66
2022/01/27 02:57:27;;;;;;;41.85;19.63;;;;;;;-0.06;78.17;100189.44;2621912;54;20034;-66
2022/01/27 02:59:56;;;;;;;44.92;20.80;;;;;;;0.00;78.10;100198.66;2620241;47;20082;-65
2022/01/27 03:02:26;;;;;;;40.83;19.60;;;;;;;-0.05;77.62;100187.66;2621328;54;20049;-64
2022/01/27 03:04:56;;;;;;;44.38;20.27;;;;;;;-0.04;77.55;100189.38;2619263;54;20151;-65
2022/01/27 03:07:28;;;;;;;40.47;19.70;;;;;;;-0.13;77.87;100193.31;2619912;54;20561;-65
2022/01/27 03:09:58;;;;;;;36.50;18.80;;;;;;;-0.15;77.67;100191.75;2620102;54;20026;-65
2022/01/27 03:12:29;;;;;;;36.20;17.85;;;;;;;-0.19;77.95;100180.69;2620562;54;20027;-64
2022/01/27 03:15:00;;;;;;;37.47;19.33;;;;;;;-0.18;78.11;100181.53;2619455;54;20034;-65
2022/01/27 03:17:29;;;;;;;43.08;20.20;;;;;;;-0.13;77.93;100188.13;2621264;54;20150;-64
2022/01/27 03:19:59;;;;;;;39.38;20.58;;;;;;;-0.06;78.43;100176.44;2623057;54;20038;-64
2022/01/27 03:22:31;;;;;;;39.67;20.33;;;;;;;0.01;77.96;100170.88;2622963;54;20034;-65
2022/01/27 03:25:01;;;;;;;41.42;20.13;;;;;;;0.02;78.26;100177.75;2619676;54;20031;-65
2022/01/27 03:27:30;;;;;;;38.40;20.48;;;;;;;0.14;77.94;100177.00;2619352;54;20561;-65
2022/01/27 03:30:00;;;;;;;40.05;20.83;;;;;;;0.14;77.48;100177.00;2618702;47;20554;-64
2022/01/27 03:32:30;;;;;;;38.63;19.50;;;;;;;0.16;77.63;100168.19;2619183;54;20034;-65
2022/01/27 03:34:59;;;;;;;35.95;19.33;;;;;;;0.13;77.52;100164.94;2618249;47;20026;-64
2022/01/27 03:37:32;;;;;;;42.20;20.80;;;;;;;0.11;77.27;100164.19;2618803;54;20860;-64
2022/01/27 03:40:02;;;;;;;42.95;20.30;;;;;;;0.08;77.62;100164.38;2618944;54;20042;-63
2022/01/27 03:42:31;;;;;;;39.60;19.92;;;;;;;0.08;77.50;100172.16;2619146;39;20454;-66
2022/01/27 03:45:01;;;;;;;34.72;18.75;;;;;;;-0.05;77.97;100178.09;2617999;54;20023;-63
2022/01/27 03:47:30;;;;;;;36.55;19.88;;;;;;;-0.08;77.74;100167.06;2618531;54;20030;-64
2022/01/27 03:50:00;;;;;;;34.47;17.95;;;;;;;-0.05;77.96;100165.09;2622506;39;20462;-65
2022/01/27 03:52:32;;;;;;;37.13;18.17;;;;;;;-0.06;78.07;100160.00;2621483;54;20045;-66
2022/01/27 03:55:02;;;;;;;38.10;18.17;;;;;;;-0.08;78.35;100169.69;2618553;54;20055;-64
2022/01/27 03:57:31;;;;;;;37.92;18.08;;;;;;;-0.04;78.14;100165.97;2618635;54;20409;-63
2022/01/27 04:00:01;;;;;;;33.25;16.77;;;;;;;-0.03;78.12;100159.84;2618931;54;20022;-63
2022/01/27 04:02:52;;;;;;;33.67;18.02;;;;;;;-0.07;78.11;100159.16;2618945;54;20053;-63
2022/01/27 04:05:23;;;;;;;34.05;17.38;;;;;;;-0.04;78.47;100153.81;2618568;54;20027;-63
2022/01/27 04:07:57;;;;;;;34.25;18.75;;;;;;;0.01;77.85;100148.31;2618378;54;20248;-64
2022/01/27 04:10:27;;;;;;;34.90;16.98;;;;;;;-0.02;78.10;100146.72;2618825;54;20054;-64
2022/01/27 04:12:56;;;;;;;31.33;16.80;;;;;;;-0.03;78.46;100157.22;2619423;31;20535;-64
2022/01/27 04:15:26;;;;;;;32.75;17.58;;;;;;;-0.01;78.21;100148.38;2618076;50;20562;-63
2022/01/27 04:17:56;;;;;;;33.58;18.10;;;;;;;0.02;78.03;100138.75;2618569;54;20031;-63
2022/01/27 04:20:26;;;;;;;31.83;17.25;;;;;;;0.05;78.21;100142.00;2618614;54;20022;-63
2022/01/27 04:22:58;;;;;;;32.80;17.23;;;;;;;0.04;78.23;100140.34;2618701;54;20026;-63
2022/01/27 04:25:28;;;;;;;35.72;17.83;;;;;;;0.07;78.14;100152.31;2617967;54;20026;-63
2022/01/27 04:28:03;;;;;;;33.17;17.33;;;;;;;0.07;77.96;100147.09;2618128;39;20199;-65
2022/01/27 04:30:33;;;;;;;29.90;16.33;;;;;;;0.11;78.28;100143.38;2618608;54;20057;-67
2022/01/27 04:33:05;;;;;;;33.60;18.27;;;;;;;0.11;78.11;100141.63;2618710;54;20063;-65
2022/01/27 04:35:39;;;;;;;33.85;16.70;;;;;;;0.16;77.92;100150.00;2618450;39;20439;-63
2022/01/27 04:38:30;;;;;;;30.65;15.70;;;;;;;0.19;78.27;100147.19;2617966;54;20438;-63
2022/01/27 04:41:08;;;;;;;32.05;16.85;;;;;;;0.17;78.05;100153.44;2618652;54;20046;-64
2022/01/27 04:43:44;;;;;;;27.70;14.95;;;;;;;0.11;77.73;100144.22;2618567;54;20022;-64
2022/01/27 04:46:27;;;;;;;33.05;16.67;;;;;;;0.11;78.08;100145.97;2618485;54;20030;-63
2022/01/27 04:49:00;;;;;;;36.20;17.77;;;;;;;0.16;78.00;100154.34;2618557;54;20078;-63
2022/01/27 04:51:30;;;;;;;35.75;15.45;;;;;;;0.22;78.26;100156.56;2618526;54;20082;-64
2022/01/27 04:54:07;;;;;;;33.33;16.08;;;;;;;0.12;78.05;100143.31;2618919;47;20034;-65
2022/01/27 04:56:39;;;;;;;33.65;15.45;;;;;;;0.06;78.20;100148.03;2618889;54;20034;-65
2022/01/27 04:59:14;;;;;;;36.35;17.48;;;;;;;0.06;78.54;100154.06;2618713;54;20042;-64
2022/01/27 05:01:48;;;;;;;35.25;16.63;;;;;;;0.04;78.54;100160.28;2618262;54;20034;-64
2022/01/27 05:04:21;;;;;;;25.13;14.73;;;;;;;0.03;78.69;100158.63;2618909;54;20038;-65
2022/01/27 05:06:51;;;;;;;31.85;16.13;;;;;;;0.04;78.96;100152.47;2619151;39;20512;-65
2022/01/27 05:09:24;;;;;;;36.72;19.58;;;;;;;0.12;78.74;100161.50;2618776;54;20078;-65
2022/01/27 05:11:58;;;;;;;33.57;16.63;;;;;;;0.16;79.16;100159.53;2618087;54;20042;-65
2022/01/27 05:14:27;;;;;;;32.05;16.85;;;;;;;0.18;79.06;100158.53;2619040;54;20039;-64
2022/01/27 05:16:57;;;;;;;31.63;16.63;;;;;;;0.21;79.04;100167.91;2618334;51;20059;-62
2022/01/27 05:19:26;;;;;;;35.97;18.23;;;;;;;0.18;78.99;100171.53;2618315;54;20063;-63
2022/01/27 05:21:56;;;;;;;37.08;19.42;;;;;;;0.13;78.94;100168.38;2618225;39;20430;-66
2022/01/27 05:24:28;;;;;;;39.20;18.70;;;;;;;0.19;79.02;100165.38;2617858;47;20055;-64
2022/01/27 05:26:58;;;;;;;33.60;17.13;;;;;;;0.29;78.99;100164.84;2618467;54;20063;-64
2022/01/27 05:29:27;;;;;;;34.47;17.67;;;;;;;0.31;78.74;100153.41;2618728;54;20026;-64
2022/01/27 05:31:57;;;;;;;31.00;16.45;;;;;;;0.28;78.69;100161.38;2618650;54;20127;-63
2022/01/27 05:34:27;;;;;;;32.65;15.85;;;;;;;0.26;79.11;100152.03;2617974;47;20057;-64
2022/01/27 05:36:56;;;;;;;37.92;18.17;;;;;;;0.22;78.87;100154.81;2618541;54;20625;-65
2022/01/27 05:39:30;;;;;;;37.03;18.60;;;;;;;0.26;79.69;100152.03;2619558;54;20045;-65
2022/01/27 05:41:59;;;;;;;34.55;17.75;;;;;;;0.29;78.98;100147.47;2619132;54;20140;-65
2022/01/27 05:44:30;;;;;;;30.38;16.30;;;;;;;0.34;79.26;100149.78;2619584;54;20129;-65
2022/01/27 05:47:00;;;;;;;30.83;16.45;;;;;;;0.35;79.01;100146.25;2621896;54;20037;-66
2022/01/27 05:49:30;;;;;;;26.90;14.98;;;;;;;0.35;79.13;100138.44;2620289;54;20038;-65
2022/01/27 05:52:00;;;;;;;32.50;15.20;;;;;;;0.29;78.91;100150.06;2622688;54;20042;-65
2022/01/27 05:54:34;;;;;;;27.73;15.00;;;;;;;0.28;78.93;100137.97;2622310;39;20407;-65
2022/01/27 05:57:04;;;;;;;32.72;16.00;;;;;;;0.33;79.59;100142.94;2623407;54;20106;-65
2022/01/27 05:59:33;;;;;;;27.13;14.07;;;;;;;0.32;79.03;100138.63;2623896;54;20134;-65
2022/01/27 06:02:03;;;;;;;29.60;16.13;;;;;;;0.38;79.15;100133.91;2623682;54;20096;-65
2022/01/27 06:04:33;;;;;;;28.38;14.43;;;;;;;0.39;79.12;100134.72;2622887;39;20437;-65
2022/01/27 06:07:02;;;;;;;25.15;13.60;;;;;;;0.38;79.22;100128.69;2622694;54;20077;-65
2022/01/27 06:09:35;;;;;;;25.83;14.90;;;;;;;0.37;79.14;100136.59;2622726;54;20038;-66
2022/01/27 06:12:05;;;;;;;24.42;13.82;;;;;;;0.38;79.27;100133.91;2622676;54;20030;-65
2022/01/27 06:14:35;;;;;;;25.73;14.18;;;;;;;0.49;79.36;100138.44;2622721;54;20073;-65
2022/01/27 06:17:05;;;;;;;23.95;13.90;;;;;;;0.58;79.13;100135.25;2618449;47;20033;-65
2022/01/27 06:19:35;;;;;;;26.52;14.23;;;;;;;0.60;78.67;100135.97;2618766;54;20047;-66
2022/01/27 06:22:11;;;;;;;25.02;14.57;;;;;;;0.61;78.65;100134.22;2620257;54;20078;-66
2022/01/27 06:24:45;;;;;;;24.08;14.45;;;;;;;0.64;78.88;100129.66;2622456;54;20126;-65
2022/01/27 06:27:16;;;;;;;27.67;15.05;;;;;;;0.63;78.66;100128.00;2618303;47;20034;-66
2022/01/27 06:29:45;;;;;;;28.33;14.88;;;;;;;0.68;78.98;100125.91;2617899;52;20023;-63
2022/01/27 06:32:15;;;;;;;28.50;17.05;;;;;;;0.77;78.67;100132.31;2618042;54;20033;-65
2022/01/27 06:34:44;;;;;;;27.33;15.93;;;;;;;0.79;78.93;100127.03;2619605;39;20425;-64
2022/01/27 06:37:14;;;;;;;28.15;15.88;;;;;;;0.85;78.88;100130.06;2618282;54;20037;-67
2022/01/27 06:39:46;;;;;;;28.20;14.82;;;;;;;0.89;78.26;100118.50;2619136;54;20030;-65
2022/01/27 06:42:16;;;;;;;28.75;14.65;;;;;;;0.91;78.61;100114.03;2619086;54;20030;-63
2022/01/27 06:44:45;;;;;;;31.05;15.77;;;;;;;0.98;78.43;100117.09;2619045;54;20051;-64
2022/01/27 06:47:15;;;;;;;29.17;15.20;;;;;;;1.03;78.35;100114.19;2618434;47;20597;-63
2022/01/27 06:49:45;;;;;;;26.52;15.15;;;;;;;1.01;78.20;100116.06;2618946;54;20034;-64
2022/01/27 06:52:15;;;;;;;29.92;15.77;;;;;;;0.92;77.93;100117.47;2619040;54;20082;-65
2022/01/27 06:54:49;;;;;;;32.17;15.10;;;;;;;0.93;78.31;100109.56;2619218;54;20041;-67
2022/01/27 06:57:18;;;;;;;30.20;15.20;;;;;;;0.90;78.62;100103.75;2619253;39;20442;-65
2022/01/27 06:59:48;;;;;;;25.48;14.70;;;;;;;0.89;78.45;100108.09;2619322;54;20034;-63
2022/01/27 07:02:18;;;;;;;26.92;15.70;;;;;;;0.92;78.62;100107.06;2619165;54;20054;-64
2022/01/27 07:04:49;;;;;;;27.42;15.27;;;;;;;0.91;78.67;100103.63;2618694;54;20078;-65
2022/01/27 07:07:18;;;;;;;28.90;15.35;;;;;;;0.92;78.78;100104.47;2619097;54;20022;-65
2022/01/27 07:09:54;;;;;;;28.00;14.18;;;;;;;0.93;78.40;100108.72;2619836;39;20434;-67
2022/01/27 07:12:24;;;;;;;28.15;15.52;;;;;;;0.90;78.53;100112.38;2619143;54;20042;-64
2022/01/27 07:14:54;;;;;;;31.60;17.77;;;;;;;0.95;78.63;100118.13;2619821;54;20041;-66
2022/01/27 07:17:24;;;;;;;45.40;29.88;;;;;;;1.01;78.35;100119.47;2619780;54;20030;-65
2022/01/27 07:19:53;;;;;;;32.95;19.88;;;;;;;1.04;78.12;100118.47;2619437;47;20027;-64
2022/01/27 07:22:23;;;;;;;28.95;15.10;;;;;;;1.04;78.09;100121.91;2618497;54;20109;-63
2022/01/27 07:24:55;;;;;;;31.83;14.32;;;;;;;0.98;77.85;100119.72;2619287;54;20047;-65
2022/01/27 07:27:24;;;;;;;30.25;14.98;;;;;;;0.94;77.89;100128.66;2619097;54;20035;-65
2022/01/27 07:29:54;;;;;;;29.17;15.95;;;;;;;0.97;78.18;100125.81;2619204;54;20588;-64
2022/01/27 07:32:23;;;;;;;28.88;14.30;;;;;;;0.95;78.17;100112.91;2619756;31;20591;-67
2022/01/27 07:34:54;;;;;;;29.17;15.05;;;;;;;0.97;77.91;100112.81;2619953;39;20501;-66
2022/01/27 07:37:23;;;;;;;32.13;15.35;;;;;;;0.88;77.65;100113.41;2618886;54;20033;-64
2022/01/27 07:39:56;;;;;;;33.55;15.35;;;;;;;0.80;77.85;100108.69;2619369;54;20069;-64
2022/01/27 07:42:25;;;;;;;35.88;15.75;;;;;;;0.80;78.03;100102.66;2619319;54;20038;-64
2022/01/27 07:44:56;;;;;;;28.10;13.90;;;;;;;0.76;77.71;100102.00;2618215;47;20035;-68
2022/01/27 07:47:26;;;;;;;32.53;14.98;;;;;;;0.77;78.24;100111.47;2618653;54;20042;-63
2022/01/27 07:49:55;;;;;;;28.15;13.55;;;;;;;0.66;77.63;100113.97;2618711;47;20071;-63
2022/01/27 07:52:25;;;;;;;28.77;14.80;;;;;;;0.56;78.25;100110.25;2618379;54;20034;-64
2022/01/27 07:54:57;;;;;;;33.38;15.73;;;;;;;0.58;78.67;100103.19;2618783;54;20130;-66
2022/01/27 07:57:27;;;;;;;29.83;14.15;;;;;;;0.63;78.60;100093.31;2619260;39;20470;-65
2022/01/27 07:59:56;;;;;;;32.78;15.13;;;;;;;0.65;78.29;100107.06;2619056;54;20030;-66
2022/01/27 08:02:26;;;;;;;30.88;13.63;;;;;;;0.64;78.39;100106.22;2618790;54;20078;-66
2022/01/27 08:04:56;;;;;;;28.35;14.20;;;;;;;0.64;78.11;100101.03;2619056;31;20522;-66
2022/01/27 08:07:25;;;;;;;27.63;14.15;;;;;;;0.67;78.53;100098.22;2618502;54;20126;-65
2022/01/27 08:09:57;;;;;;;31.80;16.23;;;;;;;0.69;78.58;100104.19;2618941;54;20093;-65
2022/01/27 08:12:27;;;;;;;27.13;13.02;;;;;;;0.68;78.58;100099.91;2619356;39;20424;-65
2022/01/27 08:14:56;;;;;;;26.38;14.02;;;;;;;0.59;78.45;100099.66;2619027;54;20037;-66
2022/01/27 08:17:26;;;;;;;27.17;12.93;;;;;;;0.60;78.35;100106.53;2618688;54;20026;-66
2022/01/27 08:19:56;;;;;;;28.02;13.30;;;;;;;0.57;78.33;100110.16;2618360;54;20048;-68
2022/01/27 08:22:26;;;;;;;27.42;14.43;;;;;;;0.55;78.03;100096.41;2620222;54;20042;-67
2022/01/27 08:24:58;;;;;;;29.65;14.25;;;;;;;0.54;78.33;100093.91;2621874;54;20078;-65
2022/01/27 08:27:30;;;;;;;26.30;11.77;;;;;;;0.52;78.29;100086.19;2622185;39;20454;-66
2022/01/27 08:30:03;;;;;;;29.13;15.82;;;;;;;0.53;78.42;100080.06;2621877;54;20026;-66
2022/01/27 08:32:45;;;;;;;25.63;13.20;;;;;;;0.58;78.45;100090.19;2621906;54;20031;-66
2022/01/27 08:35:15;;;;;;;28.65;14.25;;;;;;;0.51;78.56;100081.94;2621356;54;20073;-66
2022/01/27 08:37:45;;;;;;;29.05;14.95;;;;;;;0.47;78.55;100086.47;2621783;54;20026;-67
2022/01/27 08:40:19;;;;;;;28.08;14.10;;;;;;;0.52;78.21;100087.97;2620675;54;20022;-67
2022/01/27 08:43:07;;;;;;;29.80;14.52;;;;;;;0.57;78.61;100088.50;2618903;54;20034;-66
2022/01/27 08:45:39;;;;;;;28.70;13.15;;;;;;;0.60;78.18;100085.69;2619279;54;20034;-67
2022/01/27 08:48:10;;;;;;;25.38;12.65;;;;;;;0.58;78.31;100084.97;2618979;54;20046;-66
2022/01/27 08:50:40;;;;;;;25.38;12.38;;;;;;;0.52;78.30;100082.75;2619951;54;20126;-67
2022/01/27 08:53:09;;;;;;;27.30;13.90;;;;;;;0.54;78.14;100083.50;2620973;54;20026;-66
2022/01/27 08:55:44;;;;;;;25.67;14.45;;;;;;;0.65;78.21;100083.63;2619432;54;20034;-66
2022/01/27 08:58:14;;;;;;;27.02;13.93;;;;;;;0.70;78.21;100082.44;2619989;54;20034;-66
2022/01/27 09:00:43;;;;;;;26.10;13.93;;;;;;;0.70;77.97;100079.81;2620581;54;20026;-65
2022/01/27 09:03:13;;;;;;;24.15;12.95;;;;;;;0.68;77.69;100086.06;2620096;54;20034;-66
2022/01/27 09:05:44;;;;;;;30.08;12.75;;;;;;;0.58;77.26;100084.97;2619486;54;20035;-68
2022/01/27 09:08:13;;;;;;;28.15;13.48;;;;;;;0.56;77.28;100084.22;2618910;54;20042;-66
2022/01/27 09:10:46;;;;;;;26.00;13.30;;;;;;;0.59;77.86;100090.06;2618792;54;20086;-67
2022/01/27 09:13:18;;;;;;;25.67;13.65;;;;;;;0.60;77.55;100089.13;2617189;47;20174;-67
2022/01/27 09:15:49;;;;;;;25.98;13.20;;;;;;;0.49;77.39;100089.00;2618551;54;20034;-65
2022/01/27 09:18:19;;;;;;;25.15;13.77;;;;;;;0.43;77.18;100090.22;2618111;47;20604;-67
2022/01/27 09:20:48;;;;;;;26.75;13.45;;;;;;;0.49;77.59;100083.81;2619210;47;20077;-64
2022/01/27 09:23:19;;;;;;;24.35;12.00;;;;;;;0.46;77.52;100086.59;2619690;54;20031;-64
2022/01/27 09:25:55;;;;;;;21.45;12.05;;;;;;;0.49;77.49;100089.00;2619996;54;20085;-64
2022/01/27 09:28:25;;;;;;;26.40;12.73;;;;;;;0.49;77.56;100094.22;2619231;54;20038;-63
2022/01/27 09:30:55;;;;;;;27.52;13.85;;;;;;;0.53;77.23;100094.81;2618903;54;20038;-65
2022/01/27 09:33:25;;;;;;;26.05;13.00;;;;;;;0.51;77.51;100084.53;2618512;54;20078;-66
2022/01/27 09:35:55;;;;;;;22.83;12.25;;;;;;;0.57;77.30;100091.09;2618500;54;20042;-65
2022/01/27 09:38:25;;;;;;;24.67;13.52;;;;;;;0.45;77.20;100080.56;2618296;46;20034;-65
2022/01/27 09:40:57;;;;;;;25.23;13.68;;;;;;;0.53;77.68;100090.47;2618552;54;20079;-68
2022/01/27 09:43:27;;;;;;;26.45;14.40;;;;;;;0.51;77.21;100091.50;2618637;54;20031;-66
2022/01/27 09:45:58;;;;;;;27.38;13.93;;;;;;;0.58;77.48;100100.59;2617868;47;20110;-68
2022/01/27 09:48:35;;;;;;;24.88;14.18;;;;;;;0.57;77.16;100101.50;2618596;54;20062;-64
2022/01/27 09:51:24;;;;;;;31.00;14.70;;;;;;;0.61;77.19;100101.25;2618589;54;20042;-68
2022/01/27 09:53:55;;;;;;;29.38;12.73;;;;;;;0.62;76.74;100096.88;2617893;54;20138;-66
2022/01/27 09:56:27;;;;;;;24.98;12.32;;;;;;;0.54;76.81;100102.56;2618177;54;20057;-67
2022/01/27 09:59:07;;;;;;;25.13;12.98;;;;;;;0.49;77.02;100105.44;2618736;54;20094;-66
2022/01/27 10:01:37;;;;;;;26.20;13.18;;;;;;;0.56;77.13;100107.66;2618776;54;20030;-66
2022/01/27 10:04:09;;;;;;;23.88;12.98;;;;;;;0.55;77.16;100100.78;2618449;54;20036;-67
2022/01/27 10:06:38;;;;;;;28.90;14.90;;;;;;;0.53;76.97;100100.91;2618619;54;20072;-66
2022/01/27 10:09:17;;;;;;;29.25;13.82;;;;;;;0.57;77.16;100091.97;2618760;54;20038;-67
2022/01/27 10:11:51;;;;;;;26.08;12.43;;;;;;;0.54;76.71;100094.75;2618870;54;20038;-67
2022/01/27 10:14:22;;;;;;;25.92;13.52;;;;;;;0.46;77.20;100084.00;2618779;54;20038;-66
2022/01/27 10:16:54;;;;;;;27.50;14.18;;;;;;;0.49;77.21;100083.81;2618028;54;20030;-67
2022/01/27 10:19:26;;;;;;;24.83;13.30;;;;;;;0.51;76.85;100087.13;2618414;54;20038;-66
2022/01/27 10:22:02;;;;;;;26.55;13.30;;;;;;;0.55;76.95;100079.97;2618854;54;20585;-66
2022/01/27 10:24:34;;;;;;;27.02;13.65;;;;;;;0.60;76.83;100075.28;2618866;54;20114;-66
2022/01/27 10:27:28;;;;;;;26.15;13.68;;;;;;;0.61;76.74;100066.53;2618673;54;20038;-67
2022/01/27 10:30:36;;;;;;;26.00;12.95;;;;;;;0.66;77.03;100067.94;2618697;54;20051;-67
2022/01/27 10:32:59;;;;;;;28.60;14.45;;;;;;;0.66;77.02;100061.91;2617983;47;20043;-65
2022/01/27 10:35:30;;;;;;;25.73;13.20;;;;;;;0.67;77.07;100071.38;2618572;54;20074;-66
2022/01/27 10:38:07;;;;;;;24.70;13.63;;;;;;;0.65;76.77;100070.63;2619654;54;20031;-66
2022/01/27 10:40:39;;;;;;;31.55;13.85;;;;;;;0.63;76.45;100062.09;2621620;54;20565;-67
2022/01/27 10:43:14;;;;;;;26.23;13.50;;;;;;;0.61;76.78;100067.41;2623604;54;20034;-67
2022/01/27 10:46:06;;;;;;;30.25;15.20;;;;;;;0.70;77.44;100064.22;2623164;54;20541;-66
2022/01/27 10:48:42;;;;;;;33.28;16.05;;;;;;;0.76;76.61;100059.53;2623922;39;20114;-66
2022/01/27 10:51:19;;;;;;;27.98;14.57;;;;;;;0.73;76.72;100056.22;2622509;54;20038;-64
2022/01/27 10:53:59;;;;;;;32.28;15.32;;;;;;;0.74;76.64;100059.63;2621782;54;20550;-65
2022/01/27 10:56:31;;;;;;;28.00;14.45;;;;;;;0.79;76.95;100057.56;2621843;54;20055;-65
2022/01/27 10:59:06;;;;;;;27.83;14.23;;;;;;;0.76;76.71;100057.75;2621999;54;20034;-65
2022/01/27 11:01:40;;;;;;;27.00;14.50;;;;;;;0.78;76.64;100055.91;2622310;39;20422;-67
2022/01/27 11:04:12;;;;;;;27.55;14.93;;;;;;;0.81;76.72;100037.47;2621361;54;20038;-65
2022/01/27 11:06:56;;;;;;;24.88;12.82;;;;;;;0.79;76.34;100039.34;2621309;39;20109;-68
2022/01/27 11:09:27;;;;;;;26.30;13.63;;;;;;;0.79;76.74;100039.34;2621847;39;20469;-65
2022/01/27 11:11:58;;;;;;;28.15;15.07;;;;;;;0.75;76.49;100035.28;2618598;54;20053;-65
2022/01/27 11:14:31;;;;;;;26.90;13.73;;;;;;;0.82;76.73;100027.91;2618513;54;20043;-64
2022/01/27 11:17:03;;;;;;;29.05;14.43;;;;;;;0.93;76.76;100036.66;2619998;54;20043;-68
2022/01/27 11:19:59;;;;;;;28.90;14.43;;;;;;;0.98;76.54;100026.78;2623162;54;20577;-68
2022/01/27 11:23:00;;;;;;;25.20;13.02;;;;;;;1.00;76.40;100021.47;2623899;39;20434;-70
2022/01/27 11:28:17;;;;;;;27.38;15.23;;;;;;;1.07;76.17;100027.13;2623916;54;20821;-69
2022/01/27 11:30:58;;;;;;;26.10;13.93;;;;;;;1.08;75.66;100015.75;2623518;54;20045;-70
2022/01/27 11:33:36;;;;;;;27.38;13.55;;;;;;;1.15;75.70;100019.63;2622156;54;20030;-68
2022/01/27 11:36:11;;;;;;;29.42;13.48;;;;;;;1.19;75.94;100019.31;2622117;54;20034;-68
2022/01/27 11:38:42;;;;;;;26.73;14.13;;;;;;;1.24;75.63;100016.41;2622583;54;20034;-68
2022/01/27 11:41:40;;;;;;;27.17;14.20;;;;;;;1.35;75.79;100016.50;2621514;54;20038;-68
2022/01/27 11:44:28;;;;;;;26.42;14.18;;;;;;;1.40;75.54;100016.19;2621865;54;20026;-68
2022/01/27 11:47:23;;;;;;;28.55;14.32;;;;;;;1.50;75.39;100012.00;2623527;54;20646;-68
2022/01/27 11:50:00;;;;;;;30.85;15.18;;;;;;;1.51;75.38;100024.13;2622677;54;20053;-68
2022/01/27 11:52:32;;;;;;;27.50;14.70;;;;;;;1.43;75.48;100031.63;2623420;54;20042;-68
2022/01/27 11:55:31;;;;;;;29.83;15.30;;;;;;;1.40;75.49;100018.81;2623326;54;20103;-68
2022/01/27 11:58:03;;;;;;;29.95;15.00;;;;;;;1.38;75.25;100005.03;2623599;54;20045;-71
2022/01/27 12:00:33;;;;;;;28.45;14.18;;;;;;;1.32;75.20;99993.25;2621405;54;20027;-68
2022/01/27 12:03:16;;;;;;;31.55;15.98;;;;;;;1.26;75.13;99996.28;2620878;54;20034;-67
2022/01/27 12:06:16;;;;;;;29.55;15.80;;;;;;;1.16;75.50;100000.44;2621909;54;20053;-69